Time;durP1;ratioP1;P1;durP2;ratioP2;P2;SDS_P1;SDS_P2;PMS_P1;PMS_P2;Temp;Humidity;BMP_temperature;BMP_pressure;BME280_temperature;BME280_humidity;BME280_pressure;Samples;Min_cycle;Max_cycle;Signal;HPM_P1;HPM_P2
2021/12/24 00:01:07;;;;;;;37.05;19.00;;;;;;;2.50;100.00;99775.94;10183629;28;20159;-68
2021/12/24 00:06:05;;;;;;;39.28;20.20;;;;;;;2.55;100.00;99777.78;10180345;28;20049;-68
2021/12/24 00:11:03;;;;;;;39.53;18.05;;;;;;;2.59;100.00;99793.09;10176477;28;20053;-68
2021/12/24 00:16:19;;;;;;;36.53;19.58;;;;;;;2.64;100.00;99782.25;10180130;28;20526;-68
2021/12/24 00:36:56;;;;;;;35.85;19.75;;;;;;;2.83;100.00;99778.78;10174163;28;20038;-68
2021/12/24 00:41:53;;;;;;;30.95;16.55;;;;;;;2.89;100.00;99777.66;10161308;28;20043;-68
2021/12/24 00:46:49;;;;;;;28.75;17.10;;;;;;;2.92;100.00;99787.84;10181825;28;20045;-68
2021/12/24 00:52:07;;;;;;;31.40;15.63;;;;;;;2.98;100.00;99800.22;10173173;28;20045;-69
2021/12/24 00:57:03;;;;;;;32.85;17.08;;;;;;;3.02;100.00;99790.44;10179706;28;20065;-68
2021/12/24 01:02:03;;;;;;;29.15;15.73;;;;;;;3.08;100.00;99786.56;10181800;28;20069;-68
2021/12/24 01:07:00;;;;;;;28.70;14.75;;;;;;;3.14;100.00;99780.00;10177043;28;20041;-68
2021/12/24 01:11:57;;;;;;;27.42;14.85;;;;;;;3.14;100.00;99784.63;10181589;28;20554;-68
2021/12/24 01:17:09;;;;;;;32.70;17.23;;;;;;;3.22;100.00;99793.97;10171816;28;20053;-68
2021/12/24 01:38:17;;;;;;;33.28;18.58;;;;;;;3.34;100.00;99770.00;10183110;28;20041;-69
2021/12/24 01:43:14;;;;;;;30.02;17.20;;;;;;;3.39;100.00;99767.25;10181090;28;20602;-69
2021/12/24 01:48:10;;;;;;;33.67;18.55;;;;;;;3.40;100.00;99752.63;10185933;28;20069;-68
2021/12/24 01:53:07;;;;;;;30.83;17.60;;;;;;;3.47;100.00;99758.47;10172014;28;20504;-69
2021/12/24 01:58:04;;;;;;;34.85;18.77;;;;;;;3.53;100.00;99749.19;10187364;28;20467;-69
2021/12/24 02:03:01;;;;;;;34.28;18.33;;;;;;;3.52;100.00;99752.97;10163049;28;20536;-69
2021/12/24 02:07:59;;;;;;;28.40;16.88;;;;;;;3.55;100.00;99749.69;10184737;28;20050;-68
2021/12/24 02:12:56;;;;;;;31.92;17.33;;;;;;;3.59;100.00;99736.38;10187287;28;20107;-68
2021/12/24 02:18:34;;;;;;;27.75;16.25;;;;;;;3.61;100.00;99726.06;10184738;28;20165;-68
2021/12/24 02:28:39;;;;;;;28.45;15.80;;;;;;;3.66;100.00;99722.50;10177822;28;20132;-69
2021/12/24 02:33:37;;;;;;;26.02;15.85;;;;;;;3.70;100.00;99716.19;10172555;28;20503;-69
2021/12/24 02:38:34;;;;;;;28.00;15.90;;;;;;;3.74;100.00;99711.00;10173421;28;21167;-68
2021/12/24 02:43:31;;;;;;;31.65;17.25;;;;;;;3.73;100.00;99703.97;10186966;28;20141;-68
2021/12/24 02:53:57;;;;;;;25.88;15.13;;;;;;;3.80;100.00;99715.22;10182134;28;20497;-69
2021/12/24 02:58:55;;;;;;;25.77;15.70;;;;;;;3.81;100.00;99695.22;10182822;28;20045;-69
2021/12/24 03:03:52;;;;;;;24.85;15.13;;;;;;;3.84;100.00;99693.81;10181688;28;20085;-68
2021/12/24 03:08:49;;;;;;;20.23;13.38;;;;;;;3.87;100.00;99695.91;10184668;28;20057;-68
2021/12/24 03:13:48;;;;;;;25.65;15.63;;;;;;;3.84;100.00;99693.81;10166788;28;20042;-69
2021/12/24 03:18:45;;;;;;;25.75;15.60;;;;;;;3.89;100.00;99697.22;10181315;28;20069;-69
2021/12/24 03:23:46;;;;;;;26.33;15.82;;;;;;;3.93;100.00;99703.63;10170215;28;20074;-69
2021/12/24 03:28:43;;;;;;;28.52;15.07;;;;;;;3.99;100.00;99702.44;10180804;28;20081;-69
2021/12/24 03:33:39;;;;;;;24.95;14.98;;;;;;;4.00;100.00;99682.41;10008265;28;20553;-68
2021/12/24 03:38:36;;;;;;;24.55;13.48;;;;;;;4.06;100.00;99679.59;10106280;28;20113;-68
2021/12/24 03:43:33;;;;;;;24.20;14.73;;;;;;;4.08;100.00;99680.09;10185672;28;20058;-68
2021/12/24 03:49:18;;;;;;;23.75;15.02;;;;;;;4.08;100.00;99680.09;10180439;28;20606;-68
2021/12/24 03:59:06;;;;;;;21.65;12.63;;;;;;;4.05;100.00;99669.88;10173180;28;20058;-69
2021/12/24 04:04:03;;;;;;;23.45;13.48;;;;;;;4.04;100.00;99673.69;10175839;28;20488;-68
2021/12/24 04:09:03;;;;;;;26.13;14.82;;;;;;;4.03;100.00;99669.38;10174355;28;20053;-68
2021/12/24 04:14:00;;;;;;;28.77;14.00;;;;;;;4.04;100.00;99688.03;10185725;28;20038;-69
2021/12/24 04:29:10;;;;;;;28.90;16.50;;;;;;;4.01;100.00;99688.59;10174544;28;20468;-69
2021/12/24 04:34:06;;;;;;;32.90;18.40;;;;;;;4.05;100.00;99695.03;10178175;28;20133;-68
2021/12/24 05:05:47;;;;;;;25.75;12.68;;;;;;;4.20;100.00;99715.56;10185351;28;20052;-69
2021/12/24 05:10:39;;;;;;;27.77;13.25;;;;;;;4.17;100.00;99713.47;10172985;28;20042;-69
2021/12/24 05:15:37;;;;;;;23.48;11.63;;;;;;;4.12;100.00;99724.41;10174453;28;20053;-69
2021/12/24 05:25:50;;;;;;;25.70;12.70;;;;;;;4.10;100.00;99743.63;10181711;28;20042;-69
2021/12/24 05:30:48;;;;;;;29.35;16.27;;;;;;;4.07;100.00;99740.72;10188832;28;20920;-69
2021/12/24 05:35:45;;;;;;;25.75;15.65;;;;;;;4.09;100.00;99738.53;10180549;28;20115;-69
2021/12/24 05:40:43;;;;;;;26.65;14.93;;;;;;;4.07;100.00;99741.53;10177919;28;20042;-68
2021/12/24 05:45:39;;;;;;;26.77;14.43;;;;;;;4.03;100.00;99735.09;10178782;28;20046;-69
2021/12/24 05:50:36;;;;;;;23.23;13.40;;;;;;;4.07;100.00;99735.31;10190822;28;20091;-68
2021/12/24 05:55:33;;;;;;;21.08;11.90;;;;;;;4.04;100.00;99739.41;10178431;28;20050;-69
2021/12/24 06:00:29;;;;;;;23.75;12.15;;;;;;;4.01;100.00;99748.13;10177718;28;20591;-69
2021/12/24 06:05:25;;;;;;;26.25;13.85;;;;;;;4.00;100.00;99747.31;10177054;28;20050;-69
2021/12/24 06:10:22;;;;;;;15.60;8.60;;;;;;;3.88;100.00;99738.88;10190691;28;20619;-69
2021/12/24 06:15:23;;;;;;;13.70;6.72;;;;;;;3.71;100.00;99744.03;10189352;28;20050;-69
2021/12/24 06:20:20;;;;;;;13.02;7.15;;;;;;;3.67;100.00;99748.44;10186540;28;20158;-69
2021/12/24 06:25:18;;;;;;;10.85;5.95;;;;;;;3.54;100.00;99748.06;10186964;28;20142;-68
2021/12/24 06:30:15;;;;;;;8.43;4.40;;;;;;;3.22;100.00;99748.03;10184690;28;20133;-68
2021/12/24 06:35:11;;;;;;;8.82;4.43;;;;;;;3.31;100.00;99757.09;10194200;28;20081;-68
2021/12/24 06:40:09;;;;;;;9.15;4.43;;;;;;;3.22;100.00;99758.84;10186913;28;20089;-68
2021/12/24 06:45:05;;;;;;;9.35;4.55;;;;;;;3.10;100.00;99746.56;10179572;28;20133;-69
2021/12/24 06:50:04;;;;;;;6.90;4.20;;;;;;;3.08;100.00;99754.16;10189368;28;20089;-69
2021/12/24 06:55:00;;;;;;;8.27;4.68;;;;;;;3.02;100.00;99755.34;10182871;28;20069;-68
2021/12/24 06:59:56;;;;;;;7.53;4.50;;;;;;;2.91;100.00;99753.88;10178227;28;20076;-68
2021/12/24 07:04:53;;;;;;;7.07;4.10;;;;;;;2.90;100.00;99763.88;10171623;28;20058;-69
2021/12/24 07:09:50;;;;;;;12.07;5.93;;;;;;;2.88;100.00;99760.66;10181055;28;20556;-68
2021/12/24 07:14:49;;;;;;;9.05;4.90;;;;;;;2.78;100.00;99770.75;10186369;28;20065;-68
2021/12/24 07:19:46;;;;;;;9.85;5.03;;;;;;;2.79;100.00;99767.00;10183698;28;20141;-68
2021/12/24 07:24:43;;;;;;;10.73;5.30;;;;;;;2.76;100.00;99783.75;10188031;28;20074;-68
2021/12/24 07:29:39;;;;;;;11.32;4.88;;;;;;;2.45;100.00;99789.50;10175387;28;20096;-68
2021/12/24 07:34:36;;;;;;;12.55;5.88;;;;;;;2.54;100.00;99801.28;10174883;28;20129;-68
2021/12/24 07:39:32;;;;;;;12.15;6.60;;;;;;;2.53;100.00;99803.16;10188884;28;20050;-68
2021/12/24 07:44:30;;;;;;;12.45;7.25;;;;;;;2.62;100.00;99819.53;10174620;28;20038;-68
2021/12/24 07:54:23;;;;;;;12.18;6.68;;;;;;;2.38;100.00;99816.00;10177135;28;20088;-68
2021/12/24 07:59:20;;;;;;;13.13;6.68;;;;;;;2.38;100.00;99816.00;10176555;28;20077;-68
2021/12/24 08:04:17;;;;;;;15.50;6.90;;;;;;;2.50;100.00;99814.50;10177840;28;20042;-68
2021/12/24 08:09:14;;;;;;;9.00;4.65;;;;;;;2.39;100.00;99828.41;10173974;28;20128;-68
2021/12/24 08:14:10;;;;;;;10.35;5.30;;;;;;;2.43;100.00;99832.13;10177144;28;20069;-68
2021/12/24 08:19:07;;;;;;;9.90;5.43;;;;;;;2.44;100.00;99831.06;10174773;28;20132;-68
2021/12/24 08:24:04;;;;;;;11.07;5.68;;;;;;;2.36;100.00;99823.56;10173988;28;20050;-68
2021/12/24 08:29:02;;;;;;;10.65;5.90;;;;;;;2.27;100.00;99832.28;10174613;28;20077;-68
2021/12/24 08:33:58;;;;;;;11.35;6.28;;;;;;;2.27;100.00;99834.16;9985927;28;20073;-68
2021/12/24 08:38:55;;;;;;;9.07;5.47;;;;;;;2.15;100.00;99839.16;10131162;28;20381;-68
2021/12/24 08:43:51;;;;;;;9.50;6.03;;;;;;;2.14;100.00;99851.84;10177627;28;20141;-68
2021/12/24 08:48:48;;;;;;;11.98;6.60;;;;;;;2.13;100.00;99834.03;10190149;28;20174;-68
2021/12/24 08:53:45;;;;;;;10.45;5.65;;;;;;;2.06;100.00;99838.94;10179191;28;20076;-68
2021/12/24 08:58:41;;;;;;;11.10;6.43;;;;;;;2.17;100.00;99826.97;10184657;28;20042;-68
2021/12/24 09:03:38;;;;;;;11.45;6.22;;;;;;;2.18;100.00;99820.53;10173022;28;20042;-67
2021/12/24 09:08:35;;;;;;;10.23;6.35;;;;;;;2.12;100.00;99840.53;10186287;28;20050;-68
2021/12/24 09:13:32;;;;;;;9.65;5.70;;;;;;;2.22;100.00;99840.41;10180072;28;20084;-68
2021/12/24 09:18:28;;;;;;;10.60;5.60;;;;;;;2.12;100.00;99851.31;10185429;28;20076;-68
2021/12/24 09:23:25;;;;;;;9.60;6.13;;;;;;;2.15;100.00;99861.53;10169119;28;20110;-68
2021/12/24 09:28:44;;;;;;;9.23;5.25;;;;;;;2.08;100.00;99883.41;10176096;28;20129;-68
2021/12/24 09:33:41;;;;;;;11.55;6.70;;;;;;;2.09;100.00;99884.25;10167423;28;20625;-68
2021/12/24 09:38:37;;;;;;;14.50;9.05;;;;;;;2.00;100.00;99881.34;10027484;28;20095;-68
2021/12/24 09:43:34;;;;;;;11.35;7.32;;;;;;;2.00;100.00;99902.91;10112092;28;20096;-68
2021/12/24 09:48:30;;;;;;;12.50;6.55;;;;;;;1.83;100.00;99908.69;10185398;28;20116;-68
2021/12/24 09:53:27;;;;;;;10.07;5.90;;;;;;;1.71;100.00;99920.88;10193199;28;20069;-68
2021/12/24 09:58:23;;;;;;;9.85;5.72;;;;;;;1.54;100.00;99926.63;10195710;28;20511;-67
2021/12/24 10:03:37;;;;;;;13.25;7.30;;;;;;;1.54;100.00;99915.84;10187801;28;20130;-68
2021/12/24 10:08:34;;;;;;;11.10;6.38;;;;;;;1.51;100.00;99911.00;10182286;28;20555;-68
2021/12/24 10:13:43;;;;;;;9.57;5.40;;;;;;;1.53;100.00;99930.38;10186496;28;20477;-68
2021/12/24 10:18:39;;;;;;;13.75;5.38;;;;;;;1.35;100.00;99929.16;10189994;28;20566;-68
2021/12/24 10:23:42;;;;;;;9.57;5.60;;;;;;;1.42;100.00;99935.03;10183954;28;20138;-68
2021/12/24 10:28:47;;;;;;;6.88;4.45;;;;;;;1.40;100.00;99931.81;10181625;28;20080;-68
2021/12/24 10:34:04;;;;;;;10.55;6.35;;;;;;;1.22;100.00;99936.72;10172537;28;20062;-68
2021/12/24 10:39:00;;;;;;;11.82;7.07;;;;;;;1.32;100.00;99925.09;10169603;28;20042;-68
2021/12/24 10:44:14;;;;;;;11.90;6.30;;;;;;;1.11;100.00;99929.75;10178763;28;20428;-68
2021/12/24 10:49:23;;;;;;;12.63;7.20;;;;;;;1.29;100.00;99936.41;10171612;28;20133;-67
2021/12/24 10:54:20;;;;;;;11.05;6.90;;;;;;;1.43;100.00;99937.44;10173846;28;20058;-68
2021/12/24 10:59:40;;;;;;;10.90;6.65;;;;;;;1.51;100.00;99932.56;10178072;28;20132;-68
2021/12/24 11:04:37;;;;;;;13.55;8.15;;;;;;;1.50;100.00;99936.34;10178334;28;20076;-68
2021/12/24 11:09:33;;;;;;;11.88;8.23;;;;;;;1.58;100.00;99930.38;10185078;28;20046;-67
2021/12/24 11:14:34;;;;;;;12.73;7.43;;;;;;;1.63;100.00;99920.38;10172227;28;20041;-68
2021/12/24 11:19:51;;;;;;;14.90;8.85;;;;;;;1.55;100.00;99949.78;10165627;28;20503;-68
2021/12/24 11:24:48;;;;;;;15.50;9.45;;;;;;;1.75;100.00;99962.38;10174468;28;20831;-68
2021/12/24 11:29:44;;;;;;;15.45;9.35;;;;;;;1.62;100.00;99971.84;10181493;28;20136;-68
2021/12/24 11:34:41;;;;;;;15.07;9.23;;;;;;;1.45;100.00;99967.59;10182593;28;20125;-68
2021/12/24 11:39:38;;;;;;;15.35;8.82;;;;;;;1.44;100.00;99974.09;9966962;28;20499;-70
2021/12/24 11:44:35;;;;;;;16.30;10.68;;;;;;;1.44;100.00;99976.78;10158589;28;20038;-70
2021/12/24 11:49:31;;;;;;;16.48;8.55;;;;;;;1.40;100.00;99981.09;10186827;28;20081;-71
2021/12/24 11:54:28;;;;;;;17.08;10.60;;;;;;;1.58;100.00;99986.94;10173652;28;20049;-71
2021/12/24 11:59:38;;;;;;;24.13;12.60;;;;;;;1.64;100.00;99985.84;10186227;28;20085;-70
2021/12/24 12:04:34;;;;;;;23.20;13.65;;;;;;;1.63;100.00;100001.22;10170495;28;20129;-70
2021/12/24 12:09:41;;;;;;;22.92;12.80;;;;;;;1.51;100.00;100008.00;10177121;28;20069;-71
2021/12/24 12:14:37;;;;;;;22.98;12.57;;;;;;;1.54;100.00;100012.84;10175863;28;20076;-70
2021/12/24 12:24:57;;;;;;;22.50;13.85;;;;;;;1.48;100.00;100014.75;10176038;28;20088;-70
2021/12/24 12:29:54;;;;;;;26.40;14.63;;;;;;;1.50;100.00;100017.16;10165190;28;20052;-70
2021/12/24 12:35:00;;;;;;;28.80;16.00;;;;;;;1.46;100.00;100028.50;10171476;28;20065;-71
2021/12/24 12:40:14;;;;;;;26.40;14.52;;;;;;;1.51;100.00;100034.94;10184646;28;20554;-71
2021/12/24 12:45:10;;;;;;;;;;;;;;;1.61;100.00;100045.69;10174092;28;20484;-69
2021/12/24 12:50:26;;;;;;;25.15;14.40;;;;;;;1.67;100.00;100044.56;10177344;28;19930;-70
2021/12/24 12:55:34;;;;;;;22.17;14.07;;;;;;;1.55;100.00;100054.88;10185014;28;20046;-71
2021/12/24 13:00:32;;;;;;;25.67;15.88;;;;;;;1.50;100.00;100061.06;10177171;28;20049;-70
2021/12/24 13:05:53;;;;;;;26.05;16.55;;;;;;;1.47;100.00;100067.81;10177962;28;20051;-71
2021/12/24 13:11:10;;;;;;;29.30;15.77;;;;;;;1.38;100.00;100074.84;10177911;28;20124;-71
2021/12/24 13:16:17;;;;;;;27.23;15.43;;;;;;;1.34;100.00;100089.91;10173154;28;20078;-68
2021/12/24 13:26:33;;;;;;;26.98;15.85;;;;;;;1.27;100.00;100100.16;10187689;28;20132;-71
2021/12/24 13:31:30;;;;;;;30.30;16.35;;;;;;;1.34;100.00;100110.66;10182037;28;20077;-71
2021/12/24 13:36:29;;;;;;;30.23;16.20;;;;;;;1.23;100.00;100123.31;10186226;28;20126;-70
2021/12/24 13:41:26;;;;;;;24.98;15.48;;;;;;;1.29;100.00;100134.91;10186863;28;20133;-71
2021/12/24 13:46:24;;;;;;;28.98;15.43;;;;;;;1.27;100.00;100145.97;10179860;28;20440;-71
2021/12/24 13:56:24;;;;;;;29.08;15.55;;;;;;;1.47;100.00;100156.72;10191508;28;20061;-70
2021/12/24 14:01:29;;;;;;;36.40;18.70;;;;;;;1.47;100.00;100164.81;10176402;28;20076;-70
2021/12/24 14:06:37;;;;;;;32.72;17.00;;;;;;;1.35;100.00;100166.97;10170796;28;20104;-71
2021/12/24 14:11:36;;;;;;;33.42;17.15;;;;;;;1.43;100.00;100174.50;10186727;28;20103;-69
2021/12/24 14:16:56;;;;;;;35.90;16.10;;;;;;;1.23;100.00;100186.09;10175541;28;20042;-70
2021/12/24 14:21:52;;;;;;;38.92;19.38;;;;;;;1.37;100.00;100189.06;10183510;28;20109;-69
2021/12/24 14:26:53;;;;;;;41.38;18.02;;;;;;;1.51;100.00;100201.97;10180848;28;20050;-71
2021/12/24 14:31:51;;;;;;;34.92;16.67;;;;;;;1.36;100.00;100211.69;10189371;28;20511;-70
2021/12/24 14:37:03;;;;;;;37.15;18.13;;;;;;;1.41;100.00;100218.97;10185354;28;20518;-71
2021/12/24 14:42:18;;;;;;;38.30;18.42;;;;;;;1.40;100.00;100239.72;10176877;28;20046;-70
2021/12/24 14:47:19;;;;;;;36.08;15.75;;;;;;;1.27;100.00;100235.63;10171094;28;20100;-71
2021/12/24 14:52:25;;;;;;;33.67;15.75;;;;;;;1.38;100.00;100241.06;10190284;28;20495;-70
2021/12/24 14:57:21;;;;;;;31.17;13.57;;;;;;;1.41;100.00;100254.78;10178555;28;20065;-70
2021/12/24 15:02:18;;;;;;;21.77;10.27;;;;;;;1.26;100.00;100271.75;10183801;28;20076;-70
2021/12/24 15:07:14;;;;;;;22.95;9.00;;;;;;;1.16;100.00;100276.28;10180552;28;20447;-70
2021/12/24 15:12:16;;;;;;;19.73;6.35;;;;;;;1.17;100.00;100288.69;10177852;28;20080;-69
2021/12/24 15:17:12;;;;;;;13.48;4.22;;;;;;;1.04;100.00;100306.16;10187845;28;20141;-70
2021/12/24 15:22:09;;;;;;;8.38;3.15;;;;;;;0.96;100.00;100304.78;10181895;28;20080;-70
2021/12/24 15:27:06;;;;;;;7.63;1.67;;;;;;;0.79;100.00;100331.06;10182553;28;20038;-71
2021/12/24 15:32:03;;;;;;;8.95;1.90;;;;;;;0.81;100.00;100328.94;10180177;28;20054;-71
2021/12/24 15:36:59;;;;;;;11.55;2.28;;;;;;;0.85;100.00;100351.56;10183076;28;20041;-71
2021/12/24 15:41:56;;;;;;;14.20;4.50;;;;;;;0.82;100.00;100362.88;10168527;28;20128;-71
2021/12/24 15:46:52;;;;;;;9.32;1.30;;;;;;;0.53;100.00;100370.50;10185530;28;20393;-70
2021/12/24 15:51:49;;;;;;;6.63;1.58;;;;;;;0.66;100.00;100382.69;10182274;28;20065;-70
2021/12/24 15:56:58;;;;;;;4.53;0.98;;;;;;;0.56;100.00;100392.31;10174865;28;20042;-71
2021/12/24 16:01:54;;;;;;;9.57;1.73;;;;;;;0.39;100.00;100402.41;10175371;28;20092;-71
2021/12/24 16:06:52;;;;;;;10.52;2.08;;;;;;;0.47;100.00;100398.44;10176913;28;20053;-69
2021/12/24 16:11:49;;;;;;;7.72;1.50;;;;;;;0.50;100.00;100414.06;10165891;28;20042;-70
2021/12/24 16:16:46;;;;;;;6.22;1.20;;;;;;;0.29;100.00;100430.03;10170219;28;20137;-69
2021/12/24 16:21:43;;;;;;;6.35;1.08;;;;;;;0.27;100.00;100447.50;10168398;28;20092;-70
2021/12/24 16:26:43;;;;;;;4.53;0.70;;;;;;;0.15;100.00;100448.47;10169905;28;20045;-71
2021/12/24 16:31:40;;;;;;;5.05;0.60;;;;;;;-0.13;100.00;100470.22;10176299;28;20065;-70
2021/12/24 16:36:36;;;;;;;5.45;0.68;;;;;;;-0.19;100.00;100487.34;10170376;28;20042;-70
2021/12/24 16:41:33;;;;;;;5.05;1.50;;;;;;;-0.12;100.00;100494.16;10170645;28;20157;-70
2021/12/24 16:46:29;;;;;;;6.60;0.45;;;;;;;-0.20;100.00;100491.13;10189050;28;20157;-70
2021/12/24 16:51:29;;;;;;;7.75;1.05;;;;;;;-0.40;100.00;100508.59;10170894;28;20133;-70
2021/12/24 16:56:27;;;;;;;4.85;0.80;;;;;;;-0.30;100.00;100530.25;10182824;28;20141;-70
2021/12/24 17:01:23;;;;;;;6.20;0.90;;;;;;;-0.41;100.00;100539.22;10189967;28;20614;-71
2021/12/24 17:06:20;;;;;;;7.68;1.02;;;;;;;-0.09;100.00;100552.00;10187811;28;20072;-70
2021/12/24 17:11:20;;;;;;;4.60;0.70;;;;;;;-0.38;100.00;100565.59;10188588;28;20558;-70
2021/12/24 17:16:19;;;;;;;7.10;2.35;;;;;;;-0.51;100.00;100576.69;10173809;28;20168;-70
2021/12/24 17:21:16;;;;;;;1.95;0.73;;;;;;;-0.36;100.00;100579.59;10174436;28;20138;-70
2021/12/24 17:26:14;;;;;;;6.90;0.63;;;;;;;-0.51;100.00;100587.44;10185360;28;20046;-70
2021/12/24 17:31:10;;;;;;;10.73;0.75;;;;;;;-0.24;100.00;100599.09;10179265;28;20060;-71
2021/12/24 17:36:09;;;;;;;4.10;0.98;;;;;;;-0.31;100.00;100590.41;10182381;28;20053;-70
2021/12/24 17:41:06;;;;;;;5.30;0.93;;;;;;;-0.53;100.00;100598.44;10175747;28;20129;-69
2021/12/24 17:46:03;;;;;;;1.63;0.50;;;;;;;-0.40;100.00;100602.63;10188858;28;20120;-71
2021/12/24 17:51:00;;;;;;;4.47;0.68;;;;;;;-0.71;100.00;100615.63;10189840;28;20046;-70
2021/12/24 17:55:59;;;;;;;3.00;0.45;;;;;;;-0.87;100.00;100629.88;10189715;28;20092;-71
2021/12/24 18:00:55;;;;;;;3.90;0.73;;;;;;;-1.15;100.00;100642.28;10183397;28;20042;-70
2021/12/24 18:05:54;;;;;;;5.57;1.17;;;;;;;-0.92;100.00;100641.31;10175572;28;20045;-70
2021/12/24 18:10:51;;;;;;;4.97;1.35;;;;;;;-1.01;100.00;100658.09;10174538;28;20132;-70
2021/12/24 18:15:47;;;;;;;5.35;0.90;;;;;;;-1.00;100.00;100667.75;10187141;28;20073;-70
2021/12/24 18:20:46;;;;;;;6.88;1.20;;;;;;;-1.09;100.00;100667.31;10186830;28;20041;-69
2021/12/24 18:25:42;;;;;;;3.20;0.60;;;;;;;-1.31;100.00;100669.88;10175192;28;20095;-69
2021/12/24 18:30:40;;;;;;;6.60;0.40;;;;;;;-1.08;100.00;100696.59;10186814;28;20100;-70
2021/12/24 18:35:36;;;;;;;2.80;0.30;;;;;;;-0.94;100.00;100701.69;10164671;28;20077;-70
2021/12/24 18:40:37;;;;;;;4.82;0.93;;;;;;;-0.82;100.00;100710.47;10179000;28;20065;-70
2021/12/24 18:45:35;;;;;;;6.20;0.63;;;;;;;-0.96;100.00;100706.47;10182415;28;20496;-70
2021/12/24 18:50:33;;;;;;;3.42;0.73;;;;;;;-0.87;100.00;100715.75;10181637;28;20042;-70
2021/12/24 18:55:30;;;;;;;3.30;0.45;;;;;;;-1.01;100.00;100711.75;10179639;28;20100;-69
2021/12/24 19:00:31;;;;;;;5.32;0.70;;;;;;;-1.10;100.00;100736.28;10178291;28;20464;-69
2021/12/24 19:05:30;;;;;;;1.85;0.60;;;;;;;-1.06;96.10;100734.75;10177006;28;20073;-69
2021/12/24 19:10:27;;;;;;;2.55;0.60;;;;;;;-1.32;98.85;100748.75;10178247;28;20073;-71
2021/12/24 19:15:23;;;;;;;4.18;0.55;;;;;;;-1.34;98.49;100756.22;10182547;28;20439;-69
2021/12/24 19:20:22;;;;;;;3.90;0.45;;;;;;;-1.38;97.57;100776.50;10180730;28;20637;-70
2021/12/24 19:25:19;;;;;;;5.05;0.95;;;;;;;-1.68;96.21;100785.53;10186142;28;20046;-70
2021/12/24 19:30:16;;;;;;;4.68;0.68;;;;;;;-1.55;100.00;100798.69;10181214;28;20427;-70
2021/12/24 19:35:15;;;;;;;2.22;0.52;;;;;;;-1.68;99.63;100798.94;10185345;28;20111;-69
2021/12/24 19:40:13;;;;;;;2.28;0.40;;;;;;;-1.72;100.00;100814.69;10174429;28;20818;-70
2021/12/24 19:45:10;;;;;;;2.75;0.52;;;;;;;-1.80;96.27;100822.25;10171374;28;20686;-70
2021/12/24 19:50:11;;;;;;;5.30;0.73;;;;;;;-1.86;94.86;100825.84;10165360;28;20058;-69
2021/12/24 19:55:10;;;;;;;1.55;0.45;;;;;;;-1.98;100.00;100832.03;10164910;28;20132;-69
2021/12/24 20:00:14;;;;;;;5.28;0.98;;;;;;;-2.07;100.00;100846.00;10173113;28;20054;-70
2021/12/24 20:05:11;;;;;;;5.60;0.60;;;;;;;-2.22;95.31;100849.13;10179786;28;20082;-69
2021/12/24 20:10:11;;;;;;;3.88;0.70;;;;;;;-2.12;100.00;100857.41;10180676;28;20089;-70
2021/12/24 20:15:08;;;;;;;5.13;0.90;;;;;;;-2.07;100.00;100849.47;10179524;28;20450;-69
2021/12/24 20:20:07;;;;;;;3.17;0.85;;;;;;;-2.08;97.93;100863.94;10180513;28;20133;-69
2021/12/24 20:25:06;;;;;;;5.35;1.08;;;;;;;-2.10;100.00;100878.63;10173984;28;20470;-70
2021/12/24 20:30:05;;;;;;;1.73;0.40;;;;;;;-2.27;100.00;100886.50;10181208;28;20577;-69
2021/12/24 20:35:03;;;;;;;4.18;0.90;;;;;;;-2.43;95.51;100894.13;10172693;28;20081;-71
2021/12/24 20:40:00;;;;;;;3.28;1.15;;;;;;;-2.57;95.04;100898.03;10169677;28;20062;-70
2021/12/24 20:44:58;;;;;;;4.25;0.90;;;;;;;-2.52;100.00;100900.84;10171894;28;20062;-70
2021/12/24 20:49:55;;;;;;;1.65;0.47;;;;;;;-2.58;96.81;100907.09;10170096;28;20073;-71
2021/12/24 20:54:57;;;;;;;3.30;0.88;;;;;;;-2.60;91.63;100909.16;9933573;29;20069;-71
2021/12/24 20:59:54;;;;;;;3.78;1.15;;;;;;;-2.76;96.89;100910.63;10171387;28;20126;-70
2021/12/24 21:04:50;;;;;;;4.10;0.68;;;;;;;-2.83;98.91;100916.06;10169205;28;20116;-70
2021/12/24 21:09:46;;;;;;;3.28;1.00;;;;;;;-2.92;100.00;100927.25;10170805;28;20129;-70
2021/12/24 21:14:43;;;;;;;3.22;0.80;;;;;;;-2.91;100.00;100932.41;10173433;28;20129;-70
2021/12/24 21:19:39;;;;;;;3.95;0.90;;;;;;;-2.92;100.00;100933.44;10184825;28;20050;-71
2021/12/24 21:24:38;;;;;;;4.13;1.13;;;;;;;-2.99;100.00;100930.03;10181365;28;20077;-70
2021/12/24 21:29:34;;;;;;;5.53;1.25;;;;;;;-3.03;100.00;100926.16;10179015;28;20108;-70
2021/12/24 21:34:31;;;;;;;3.22;1.17;;;;;;;-3.08;100.00;100934.03;10172707;28;20133;-70
2021/12/24 21:39:28;;;;;;;5.05;1.30;;;;;;;-3.11;100.00;100931.78;10164194;28;20478;-70
2021/12/24 21:44:27;;;;;;;4.22;1.30;;;;;;;-3.18;100.00;100940.72;10176368;28;20081;-71
2021/12/24 21:49:23;;;;;;;4.93;1.70;;;;;;;-3.34;100.00;100951.97;10182915;28;20392;-70
2021/12/24 21:54:19;;;;;;;5.93;1.33;;;;;;;-3.34;100.00;100943.97;10176946;28;20111;-71
2021/12/24 21:59:16;;;;;;;3.55;1.13;;;;;;;-3.35;100.00;100944.16;10183837;28;20077;-70
2021/12/24 22:09:15;;;;;;;5.03;1.83;;;;;;;-3.49;100.00;100948.81;10179079;28;20051;-70
2021/12/24 22:14:13;;;;;;;6.15;1.60;;;;;;;-3.62;100.00;100955.91;10184318;28;20070;-70
2021/12/24 22:19:10;;;;;;;5.90;1.60;;;;;;;-3.67;100.00;100958.41;10186167;28;20165;-70
2021/12/24 22:24:07;;;;;;;6.55;1.92;;;;;;;-3.71;100.00;100951.88;10182260;28;20050;-70
2021/12/24 22:29:04;;;;;;;9.25;1.70;;;;;;;-3.82;100.00;100960.59;10169900;28;20050;-69
2021/12/24 22:34:00;;;;;;;6.90;1.63;;;;;;;-3.91;100.00;100956.53;10171826;28;20074;-69
2021/12/24 22:39:02;;;;;;;4.88;1.58;;;;;;;-3.88;100.00;100956.91;10032797;28;20431;-70
2021/12/24 22:43:59;;;;;;;4.25;1.42;;;;;;;-3.95;100.00;100950.00;10136711;28;20569;-70
2021/12/24 22:48:58;;;;;;;4.72;1.48;;;;;;;-4.03;100.00;100956.41;10187351;28;20096;-70
2021/12/24 22:53:54;;;;;;;5.55;1.50;;;;;;;-4.12;100.00;100965.72;10184760;28;20125;-69
2021/12/24 22:58:51;;;;;;;5.13;1.63;;;;;;;-4.13;100.00;100970.25;10183973;28;20049;-70
2021/12/24 23:03:47;;;;;;;4.65;1.58;;;;;;;-4.16;100.00;100961.81;10185674;28;20069;-70
2021/12/24 23:08:47;;;;;;;3.97;1.50;;;;;;;-4.20;100.00;100961.44;10180766;28;20065;-70
2021/12/24 23:13:44;;;;;;;4.43;1.30;;;;;;;-4.23;100.00;100969.88;10185424;28;20053;-70
2021/12/24 23:18:43;;;;;;;4.75;1.30;;;;;;;-4.19;100.00;100971.09;10179241;28;20042;-70
2021/12/24 23:23:39;;;;;;;3.97;1.30;;;;;;;-4.22;100.00;100976.88;10163394;28;20046;-70
2021/12/24 23:28:38;;;;;;;4.28;1.20;;;;;;;-4.33;100.00;100974.88;10171798;28;20820;-70
2021/12/24 23:33:35;;;;;;;4.03;1.73;;;;;;;-4.37;100.00;100973.66;10171972;28;20053;-71
2021/12/24 23:38:32;;;;;;;5.93;2.28;;;;;;;-4.44;100.00;100984.34;10178295;28;20129;-71
2021/12/24 23:43:32;;;;;;;3.17;1.15;;;;;;;-4.50;100.00;100983.34;10178179;28;20084;-71
2021/12/24 23:48:30;;;;;;;5.93;1.45;;;;;;;-4.54;100.00;100992.81;10169181;28;20504;-71
2021/12/24 23:53:28;;;;;;;5.13;1.70;;;;;;;-4.60;100.00;100985.63;10174124;28;20081;-71
2021/12/24 23:58:27;;;;;;;4.65;1.42;;;;;;;-4.51;100.00;100994.22;10172889;28;20100;-71
